Lincoln, Nebraska
Current Conditions -  °F | °C
As of 9:54 AM on Monday 22 Dec 2014 (Local Time) from KLNK Reporting Station
Overcast Overcast  
Wind Chill:   Ceiling: 1400
Heat Index:   Visibility: 7mi
Dew Point:   Wind: 7mph
Humidity: 97%   Direction: 250°WSW
Pressure: 29.5"   Gusts: NA
Location:  40.81°N, 96.71°W
Report Text: KLNK 221554Z 25006KT 7SM FEW005 BKN014 OVC020 06/06 A2950 RMK AO2 RAB14E29 SLP995 P0001 T00610056
Loading
Personal Weather Stations






























Interactive Weather Map New forecast layout! Learn more

10-Day Weather Forecast

Advertisements
Track Severe Weather on mobile